sensor_id;sensor_type;location;lat;lon;timestamp;P1;durP1;ratioP1;P2;durP2;ratioP2
52458;SDS011;38372;52.902;6.024;2024-03-06T00:02:11;15.07;;;6.88;;
52458;SDS011;38372;52.902;6.024;2024-03-06T00:04:37;14.15;;;6.93;;
52458;SDS011;38372;52.902;6.024;2024-03-06T00:07:04;14.10;;;6.88;;
52458;SDS011;38372;52.902;6.024;2024-03-06T00:09:29;9.02;;;4.55;;
52458;SDS011;38372;52.902;6.024;2024-03-06T00:11:55;10.55;;;6.55;;
52458;SDS011;38372;52.902;6.024;2024-03-06T00:14:22;13.50;;;5.85;;
52458;SDS011;38372;52.902;6.024;2024-03-06T00:16:49;9.77;;;4.68;;
52458;SDS011;38372;52.902;6.024;2024-03-06T00:19:23;15.30;;;5.22;;
52458;SDS011;38372;52.902;6.024;2024-03-06T00:22:09;8.95;;;4.43;;
52458;SDS011;38372;52.902;6.024;2024-03-06T00:24:35;12.90;;;4.97;;
52458;SDS011;38372;52.902;6.024;2024-03-06T00:27:01;11.38;;;4.32;;
52458;SDS011;38372;52.902;6.024;2024-03-06T00:29:29;9.32;;;4.75;;
52458;SDS011;38372;52.902;6.024;2024-03-06T00:31:56;8.90;;;5.78;;
52458;SDS011;38372;52.902;6.024;2024-03-06T00:34:22;9.95;;;5.22;;
52458;SDS011;38372;52.902;6.024;2024-03-06T00:36:47;16.63;;;5.78;;
52458;SDS011;38372;52.902;6.024;2024-03-06T00:39:14;9.13;;;4.65;;
52458;SDS011;38372;52.902;6.024;2024-03-06T00:41:40;14.15;;;6.47;;
52458;SDS011;38372;52.902;6.024;2024-03-06T00:44:07;8.13;;;4.90;;
52458;SDS011;38372;52.902;6.024;2024-03-06T00:46:33;13.85;;;5.32;;
52458;SDS011;38372;52.902;6.024;2024-03-06T00:48:59;8.68;;;4.00;;
52458;SDS011;38372;52.902;6.024;2024-03-06T00:51:24;10.48;;;4.50;;
52458;SDS011;38372;52.902;6.024;2024-03-06T00:53:50;9.30;;;4.00;;
52458;SDS011;38372;52.902;6.024;2024-03-06T00:56:16;8.65;;;4.43;;
52458;SDS011;38372;52.902;6.024;2024-03-06T00:58:42;12.50;;;4.40;;
52458;SDS011;38372;52.902;6.024;2024-03-06T01:01:07;9.32;;;4.22;;
52458;SDS011;38372;52.902;6.024;2024-03-06T01:03:33;8.57;;;4.63;;
52458;SDS011;38372;52.902;6.024;2024-03-06T01:05:59;11.60;;;3.72;;
52458;SDS011;38372;52.902;6.024;2024-03-06T01:08:25;9.45;;;4.45;;
52458;SDS011;38372;52.902;6.024;2024-03-06T01:10:51;8.68;;;4.72;;
52458;SDS011;38372;52.902;6.024;2024-03-06T01:13:17;12.95;;;5.05;;
52458;SDS011;38372;52.902;6.024;2024-03-06T01:15:44;8.70;;;4.30;;
52458;SDS011;38372;52.902;6.024;2024-03-06T01:18:10;10.15;;;5.72;;
52458;SDS011;38372;52.902;6.024;2024-03-06T01:20:56;16.57;;;5.13;;
52458;SDS011;38372;52.902;6.024;2024-03-06T01:23:22;7.03;;;4.35;;
52458;SDS011;38372;52.902;6.024;2024-03-06T01:25:47;9.20;;;5.22;;
52458;SDS011;38372;52.902;6.024;2024-03-06T01:28:13;8.10;;;4.28;;
52458;SDS011;38372;52.902;6.024;2024-03-06T01:30:39;8.85;;;4.40;;
52458;SDS011;38372;52.902;6.024;2024-03-06T01:33:05;7.40;;;3.47;;
52458;SDS011;38372;52.902;6.024;2024-03-06T01:35:43;8.00;;;4.25;;
52458;SDS011;38372;52.902;6.024;2024-03-06T01:38:09;9.75;;;4.35;;
52458;SDS011;38372;52.902;6.024;2024-03-06T01:40:35;8.40;;;4.68;;
52458;SDS011;38372;52.902;6.024;2024-03-06T01:43:01;10.52;;;4.18;;
52458;SDS011;38372;52.902;6.024;2024-03-06T01:45:27;7.05;;;3.67;;
52458;SDS011;38372;52.902;6.024;2024-03-06T01:47:53;6.32;;;4.18;;
52458;SDS011;38372;52.902;6.024;2024-03-06T01:50:19;8.88;;;4.65;;
52458;SDS011;38372;52.902;6.024;2024-03-06T01:52:44;9.80;;;4.57;;
52458;SDS011;38372;52.902;6.024;2024-03-06T01:55:11;7.20;;;4.03;;
52458;SDS011;38372;52.902;6.024;2024-03-06T01:57:38;5.57;;;3.42;;
52458;SDS011;38372;52.902;6.024;2024-03-06T02:00:06;10.48;;;4.80;;
52458;SDS011;38372;52.902;6.024;2024-03-06T02:02:39;9.13;;;3.75;;
52458;SDS011;38372;52.902;6.024;2024-03-06T02:05:08;9.60;;;4.07;;
52458;SDS011;38372;52.902;6.024;2024-03-06T02:07:35;7.95;;;4.38;;
52458;SDS011;38372;52.902;6.024;2024-03-06T02:10:03;9.18;;;4.45;;
52458;SDS011;38372;52.902;6.024;2024-03-06T02:12:29;6.85;;;3.15;;
52458;SDS011;38372;52.902;6.024;2024-03-06T02:14:55;10.45;;;4.30;;
52458;SDS011;38372;52.902;6.024;2024-03-06T02:17:21;6.88;;;3.83;;
52458;SDS011;38372;52.902;6.024;2024-03-06T02:19:47;7.57;;;3.58;;
52458;SDS011;38372;52.902;6.024;2024-03-06T02:22:19;8.75;;;3.85;;
52458;SDS011;38372;52.902;6.024;2024-03-06T02:24:48;8.90;;;3.83;;
52458;SDS011;38372;52.902;6.024;2024-03-06T02:27:14;8.02;;;4.40;;
52458;SDS011;38372;52.902;6.024;2024-03-06T02:29:41;7.45;;;4.13;;
52458;SDS011;38372;52.902;6.024;2024-03-06T02:32:08;8.60;;;4.30;;
52458;SDS011;38372;52.902;6.024;2024-03-06T02:34:37;11.77;;;4.60;;
52458;SDS011;38372;52.902;6.024;2024-03-06T02:37:03;6.90;;;4.22;;
52458;SDS011;38372;52.902;6.024;2024-03-06T02:39:29;8.27;;;3.95;;
52458;SDS011;38372;52.902;6.024;2024-03-06T02:41:54;10.63;;;3.58;;
52458;SDS011;38372;52.902;6.024;2024-03-06T02:44:20;6.85;;;3.78;;
52458;SDS011;38372;52.902;6.024;2024-03-06T02:46:47;5.65;;;3.08;;
52458;SDS011;38372;52.902;6.024;2024-03-06T02:49:14;8.05;;;3.85;;
52458;SDS011;38372;52.902;6.024;2024-03-06T02:51:41;7.32;;;3.58;;
52458;SDS011;38372;52.902;6.024;2024-03-06T02:54:06;5.85;;;3.30;;
52458;SDS011;38372;52.902;6.024;2024-03-06T02:56:32;8.82;;;3.75;;
52458;SDS011;38372;52.902;6.024;2024-03-06T02:58:58;9.65;;;4.45;;
52458;SDS011;38372;52.902;6.024;2024-03-06T03:01:27;6.55;;;4.03;;
52458;SDS011;38372;52.902;6.024;2024-03-06T03:03:54;14.27;;;4.30;;
52458;SDS011;38372;52.902;6.024;2024-03-06T03:06:19;9.77;;;4.40;;
52458;SDS011;38372;52.902;6.024;2024-03-06T03:08:45;5.15;;;3.55;;
52458;SDS011;38372;52.902;6.024;2024-03-06T03:11:12;6.32;;;2.80;;
52458;SDS011;38372;52.902;6.024;2024-03-06T03:13:38;9.98;;;4.63;;
52458;SDS011;38372;52.902;6.024;2024-03-06T03:16:04;7.03;;;3.85;;
52458;SDS011;38372;52.902;6.024;2024-03-06T03:18:31;9.10;;;4.70;;
52458;SDS011;38372;52.902;6.024;2024-03-06T03:21:10;9.20;;;3.65;;
52458;SDS011;38372;52.902;6.024;2024-03-06T03:23:37;6.68;;;4.35;;
52458;SDS011;38372;52.902;6.024;2024-03-06T03:26:03;7.53;;;3.40;;
52458;SDS011;38372;52.902;6.024;2024-03-06T03:28:38;8.73;;;3.58;;
52458;SDS011;38372;52.902;6.024;2024-03-06T03:31:06;7.10;;;3.42;;
52458;SDS011;38372;52.902;6.024;2024-03-06T03:33:32;10.00;;;4.65;;
52458;SDS011;38372;52.902;6.024;2024-03-06T03:35:58;11.60;;;4.13;;
52458;SDS011;38372;52.902;6.024;2024-03-06T03:38:23;10.65;;;4.32;;
52458;SDS011;38372;52.902;6.024;2024-03-06T03:40:49;6.40;;;3.55;;
52458;SDS011;38372;52.902;6.024;2024-03-06T03:43:15;11.95;;;3.58;;
52458;SDS011;38372;52.902;6.024;2024-03-06T03:45:41;5.70;;;3.78;;
52458;SDS011;38372;52.902;6.024;2024-03-06T03:48:07;7.88;;;3.80;;
52458;SDS011;38372;52.902;6.024;2024-03-06T03:50:32;7.28;;;3.00;;
52458;SDS011;38372;52.902;6.024;2024-03-06T03:52:58;8.63;;;3.40;;
52458;SDS011;38372;52.902;6.024;2024-03-06T03:55:26;7.82;;;3.67;;
52458;SDS011;38372;52.902;6.024;2024-03-06T03:57:52;8.05;;;4.20;;
52458;SDS011;38372;52.902;6.024;2024-03-06T04:00:18;11.95;;;4.22;;
52458;SDS011;38372;52.902;6.024;2024-03-06T04:02:44;8.98;;;3.17;;
52458;SDS011;38372;52.902;6.024;2024-03-06T04:05:10;6.20;;;3.53;;
52458;SDS011;38372;52.902;6.024;2024-03-06T04:07:36;12.80;;;4.53;;
52458;SDS011;38372;52.902;6.024;2024-03-06T04:10:02;7.82;;;3.78;;
52458;SDS011;38372;52.902;6.024;2024-03-06T04:12:29;9.68;;;3.78;;
52458;SDS011;38372;52.902;6.024;2024-03-06T04:14:55;11.30;;;4.10;;
52458;SDS011;38372;52.902;6.024;2024-03-06T04:17:22;8.10;;;3.85;;
52458;SDS011;38372;52.902;6.024;2024-03-06T04:19:47;6.93;;;4.20;;
52458;SDS011;38372;52.902;6.024;2024-03-06T04:22:20;9.50;;;3.75;;
52458;SDS011;38372;52.902;6.024;2024-03-06T04:24:47;5.63;;;3.25;;
52458;SDS011;38372;52.902;6.024;2024-03-06T04:27:13;6.60;;;3.30;;
52458;SDS011;38372;52.902;6.024;2024-03-06T04:29:38;7.10;;;4.32;;
52458;SDS011;38372;52.902;6.024;2024-03-06T04:32:04;10.88;;;4.10;;
52458;SDS011;38372;52.902;6.024;2024-03-06T04:34:30;10.45;;;4.43;;
52458;SDS011;38372;52.902;6.024;2024-03-06T04:36:56;15.23;;;4.28;;
52458;SDS011;38372;52.902;6.024;2024-03-06T04:39:22;8.88;;;3.70;;
52458;SDS011;38372;52.902;6.024;2024-03-06T04:41:47;6.20;;;3.53;;
52458;SDS011;38372;52.902;6.024;2024-03-06T04:44:14;6.78;;;3.90;;
52458;SDS011;38372;52.902;6.024;2024-03-06T04:46:40;8.15;;;4.25;;
52458;SDS011;38372;52.902;6.024;2024-03-06T04:49:05;8.18;;;5.25;;
52458;SDS011;38372;52.902;6.024;2024-03-06T04:51:31;6.63;;;3.58;;
52458;SDS011;38372;52.902;6.024;2024-03-06T04:53:57;8.18;;;3.63;;
52458;SDS011;38372;52.902;6.024;2024-03-06T04:56:23;5.13;;;2.95;;
52458;SDS011;38372;52.902;6.024;2024-03-06T04:58:48;11.95;;;3.53;;
52458;SDS011;38372;52.902;6.024;2024-03-06T05:01:14;8.05;;;4.22;;
52458;SDS011;38372;52.902;6.024;2024-03-06T05:03:40;6.90;;;3.90;;
52458;SDS011;38372;52.902;6.024;2024-03-06T05:06:06;8.98;;;3.85;;
52458;SDS011;38372;52.902;6.024;2024-03-06T05:08:32;11.95;;;4.20;;
52458;SDS011;38372;52.902;6.024;2024-03-06T05:11:01;7.60;;;3.95;;
52458;SDS011;38372;52.902;6.024;2024-03-06T05:13:27;7.57;;;4.43;;
52458;SDS011;38372;52.902;6.024;2024-03-06T05:15:53;10.45;;;3.90;;
52458;SDS011;38372;52.902;6.024;2024-03-06T05:18:19;14.15;;;3.75;;
52458;SDS011;38372;52.902;6.024;2024-03-06T05:20:59;7.85;;;4.25;;
52458;SDS011;38372;52.902;6.024;2024-03-06T05:23:25;7.32;;;4.03;;
52458;SDS011;38372;52.902;6.024;2024-03-06T05:25:50;8.57;;;3.35;;
52458;SDS011;38372;52.902;6.024;2024-03-06T05:28:16;6.40;;;3.70;;
52458;SDS011;38372;52.902;6.024;2024-03-06T05:30:42;18.35;;;4.43;;
52458;SDS011;38372;52.902;6.024;2024-03-06T05:33:08;9.68;;;4.70;;
52458;SDS011;38372;52.902;6.024;2024-03-06T05:35:33;6.10;;;4.13;;
52458;SDS011;38372;52.902;6.024;2024-03-06T05:37:59;7.30;;;3.75;;
52458;SDS011;38372;52.902;6.024;2024-03-06T05:40:25;9.18;;;4.03;;
52458;SDS011;38372;52.902;6.024;2024-03-06T05:42:51;8.48;;;4.05;;
52458;SDS011;38372;52.902;6.024;2024-03-06T05:45:23;7.57;;;4.13;;
52458;SDS011;38372;52.902;6.024;2024-03-06T05:47:49;9.68;;;4.38;;
52458;SDS011;38372;52.902;6.024;2024-03-06T05:50:15;7.30;;;3.28;;
52458;SDS011;38372;52.902;6.024;2024-03-06T05:52:40;7.47;;;3.92;;
52458;SDS011;38372;52.902;6.024;2024-03-06T05:55:07;8.23;;;4.25;;
52458;SDS011;38372;52.902;6.024;2024-03-06T05:57:32;5.65;;;3.33;;
52458;SDS011;38372;52.902;6.024;2024-03-06T05:59:58;7.93;;;3.85;;
52458;SDS011;38372;52.902;6.024;2024-03-06T06:02:24;9.88;;;4.18;;
52458;SDS011;38372;52.902;6.024;2024-03-06T06:04:50;5.13;;;3.35;;
52458;SDS011;38372;52.902;6.024;2024-03-06T06:07:16;8.85;;;3.65;;
52458;SDS011;38372;52.902;6.024;2024-03-06T06:09:42;7.05;;;3.83;;
52458;SDS011;38372;52.902;6.024;2024-03-06T06:12:08;10.10;;;4.30;;
52458;SDS011;38372;52.902;6.024;2024-03-06T06:14:34;9.73;;;3.85;;
52458;SDS011;38372;52.902;6.024;2024-03-06T06:17:00;11.48;;;3.50;;
52458;SDS011;38372;52.902;6.024;2024-03-06T06:19:26;8.15;;;4.25;;
52458;SDS011;38372;52.902;6.024;2024-03-06T06:21:58;10.68;;;5.75;;
52458;SDS011;38372;52.902;6.024;2024-03-06T06:24:24;7.47;;;4.68;;
52458;SDS011;38372;52.902;6.024;2024-03-06T06:26:50;10.30;;;4.30;;
52458;SDS011;38372;52.902;6.024;2024-03-06T06:29:16;8.73;;;3.72;;
52458;SDS011;38372;52.902;6.024;2024-03-06T06:31:44;9.77;;;5.25;;
52458;SDS011;38372;52.902;6.024;2024-03-06T06:34:09;12.82;;;3.83;;
52458;SDS011;38372;52.902;6.024;2024-03-06T06:36:36;8.93;;;4.50;;
52458;SDS011;38372;52.902;6.024;2024-03-06T06:39:02;11.70;;;3.55;;
52458;SDS011;38372;52.902;6.024;2024-03-06T06:41:31;8.70;;;3.97;;
52458;SDS011;38372;52.902;6.024;2024-03-06T06:43:57;9.77;;;4.30;;
52458;SDS011;38372;52.902;6.024;2024-03-06T06:46:23;7.93;;;3.65;;
52458;SDS011;38372;52.902;6.024;2024-03-06T06:48:49;11.98;;;4.38;;
52458;SDS011;38372;52.902;6.024;2024-03-06T06:51:14;13.93;;;5.25;;
52458;SDS011;38372;52.902;6.024;2024-03-06T06:53:40;7.00;;;4.30;;
52458;SDS011;38372;52.902;6.024;2024-03-06T06:56:07;8.38;;;4.18;;
52458;SDS011;38372;52.902;6.024;2024-03-06T06:58:33;8.75;;;4.43;;
52458;SDS011;38372;52.902;6.024;2024-03-06T07:00:58;11.65;;;4.75;;
52458;SDS011;38372;52.902;6.024;2024-03-06T07:03:25;7.53;;;4.30;;
52458;SDS011;38372;52.902;6.024;2024-03-06T07:05:55;7.68;;;3.97;;
52458;SDS011;38372;52.902;6.024;2024-03-06T07:08:22;10.77;;;4.32;;
52458;SDS011;38372;52.902;6.024;2024-03-06T07:10:48;9.13;;;4.28;;
52458;SDS011;38372;52.902;6.024;2024-03-06T07:13:14;8.95;;;3.65;;
52458;SDS011;38372;52.902;6.024;2024-03-06T07:15:40;8.15;;;3.90;;
52458;SDS011;38372;52.902;6.024;2024-03-06T07:18:06;9.75;;;4.30;;
52458;SDS011;38372;52.902;6.024;2024-03-06T07:20:39;6.82;;;3.67;;
52458;SDS011;38372;52.902;6.024;2024-03-06T07:23:06;8.68;;;4.43;;
52458;SDS011;38372;52.902;6.024;2024-03-06T07:25:32;10.20;;;3.83;;
52458;SDS011;38372;52.902;6.024;2024-03-06T07:27:58;7.45;;;4.07;;
52458;SDS011;38372;52.902;6.024;2024-03-06T07:30:23;9.20;;;4.07;;
52458;SDS011;38372;52.902;6.024;2024-03-06T07:32:49;9.02;;;4.25;;
52458;SDS011;38372;52.902;6.024;2024-03-06T07:35:15;14.88;;;5.45;;
52458;SDS011;38372;52.902;6.024;2024-03-06T07:37:42;8.23;;;4.47;;
52458;SDS011;38372;52.902;6.024;2024-03-06T07:40:09;9.52;;;3.92;;
52458;SDS011;38372;52.902;6.024;2024-03-06T07:42:35;9.48;;;4.72;;
52458;SDS011;38372;52.902;6.024;2024-03-06T07:45:03;17.38;;;5.28;;
52458;SDS011;38372;52.902;6.024;2024-03-06T07:47:30;12.68;;;5.00;;
52458;SDS011;38372;52.902;6.024;2024-03-06T07:49:55;8.43;;;4.38;;
52458;SDS011;38372;52.902;6.024;2024-03-06T07:52:21;7.90;;;4.47;;
52458;SDS011;38372;52.902;6.024;2024-03-06T07:54:47;10.82;;;4.38;;
52458;SDS011;38372;52.902;6.024;2024-03-06T07:57:13;13.43;;;4.15;;
52458;SDS011;38372;52.902;6.024;2024-03-06T07:59:39;9.68;;;4.85;;
52458;SDS011;38372;52.902;6.024;2024-03-06T08:02:05;8.35;;;4.40;;
52458;SDS011;38372;52.902;6.024;2024-03-06T08:04:31;9.45;;;4.82;;
52458;SDS011;38372;52.902;6.024;2024-03-06T08:06:58;8.70;;;4.07;;
52458;SDS011;38372;52.902;6.024;2024-03-06T08:09:23;7.88;;;4.00;;
52458;SDS011;38372;52.902;6.024;2024-03-06T08:11:52;6.37;;;3.80;;
52458;SDS011;38372;52.902;6.024;2024-03-06T08:14:19;7.22;;;3.83;;
52458;SDS011;38372;52.902;6.024;2024-03-06T08:16:45;8.57;;;4.38;;
52458;SDS011;38372;52.902;6.024;2024-03-06T08:19:11;10.77;;;4.75;;
52458;SDS011;38372;52.902;6.024;2024-03-06T08:21:57;10.50;;;5.13;;
52458;SDS011;38372;52.902;6.024;2024-03-06T08:24:22;13.27;;;4.97;;
52458;SDS011;38372;52.902;6.024;2024-03-06T08:26:49;10.20;;;5.43;;
52458;SDS011;38372;52.902;6.024;2024-03-06T08:29:15;9.95;;;5.15;;
52458;SDS011;38372;52.902;6.024;2024-03-06T08:31:40;11.95;;;4.38;;
52458;SDS011;38372;52.902;6.024;2024-03-06T08:34:06;7.72;;;4.28;;
52458;SDS011;38372;52.902;6.024;2024-03-06T08:36:32;8.82;;;4.78;;
52458;SDS011;38372;52.902;6.024;2024-03-06T08:38:58;8.77;;;5.32;;
52458;SDS011;38372;52.902;6.024;2024-03-06T08:41:24;12.05;;;4.75;;
52458;SDS011;38372;52.902;6.024;2024-03-06T08:43:50;10.32;;;4.65;;
52458;SDS011;38372;52.902;6.024;2024-03-06T08:46:16;11.13;;;5.53;;
52458;SDS011;38372;52.902;6.024;2024-03-06T08:48:42;8.00;;;4.47;;
52458;SDS011;38372;52.902;6.024;2024-03-06T08:51:07;12.55;;;5.32;;
52458;SDS011;38372;52.902;6.024;2024-03-06T08:53:36;13.10;;;5.72;;
52458;SDS011;38372;52.902;6.024;2024-03-06T08:56:03;10.55;;;5.88;;
52458;SDS011;38372;52.902;6.024;2024-03-06T08:58:29;13.25;;;5.82;;
52458;SDS011;38372;52.902;6.024;2024-03-06T09:00:55;8.45;;;4.15;;
52458;SDS011;38372;52.902;6.024;2024-03-06T09:03:21;15.70;;;5.38;;
52458;SDS011;38372;52.902;6.024;2024-03-06T09:05:48;9.48;;;4.72;;
52458;SDS011;38372;52.902;6.024;2024-03-06T09:08:14;13.85;;;5.20;;
52458;SDS011;38372;52.902;6.024;2024-03-06T09:10:39;9.23;;;4.47;;
52458;SDS011;38372;52.902;6.024;2024-03-06T09:13:05;12.02;;;5.72;;
52458;SDS011;38372;52.902;6.024;2024-03-06T09:15:31;9.52;;;4.88;;
52458;SDS011;38372;52.902;6.024;2024-03-06T09:17:57;12.18;;;4.55;;
52458;SDS011;38372;52.902;6.024;2024-03-06T09:20:23;10.90;;;5.78;;
52458;SDS011;38372;52.902;6.024;2024-03-06T09:22:56;13.05;;;4.85;;
52458;SDS011;38372;52.902;6.024;2024-03-06T09:25:24;16.88;;;6.05;;
52458;SDS011;38372;52.902;6.024;2024-03-06T09:27:50;16.13;;;4.60;;
52458;SDS011;38372;52.902;6.024;2024-03-06T09:30:15;12.25;;;5.15;;
52458;SDS011;38372;52.902;6.024;2024-03-06T09:32:42;14.43;;;5.18;;
52458;SDS011;38372;52.902;6.024;2024-03-06T09:35:09;11.60;;;5.53;;
52458;SDS011;38372;52.902;6.024;2024-03-06T09:37:35;13.40;;;6.35;;
52458;SDS011;38372;52.902;6.024;2024-03-06T09:40:01;8.80;;;4.72;;
52458;SDS011;38372;52.902;6.024;2024-03-06T09:42:28;10.05;;;4.53;;
52458;SDS011;38372;52.902;6.024;2024-03-06T09:44:53;8.27;;;4.00;;
52458;SDS011;38372;52.902;6.024;2024-03-06T09:47:21;10.73;;;5.45;;
52458;SDS011;38372;52.902;6.024;2024-03-06T09:49:51;14.32;;;6.13;;
52458;SDS011;38372;52.902;6.024;2024-03-06T09:52:21;13.35;;;6.45;;
52458;SDS011;38372;52.902;6.024;2024-03-06T09:54:53;11.80;;;5.93;;
52458;SDS011;38372;52.902;6.024;2024-03-06T09:57:20;11.10;;;3.70;;
52458;SDS011;38372;52.902;6.024;2024-03-06T09:59:46;16.13;;;5.20;;
52458;SDS011;38372;52.902;6.024;2024-03-06T10:02:57;16.55;;;6.22;;
52458;SDS011;38372;52.902;6.024;2024-03-06T10:05:06;9.25;;;4.88;;
52458;SDS011;38372;52.902;6.024;2024-03-06T10:07:45;13.80;;;5.30;;
52458;SDS011;38372;52.902;6.024;2024-03-06T10:10:11;15.20;;;6.97;;
52458;SDS011;38372;52.902;6.024;2024-03-06T10:12:39;9.60;;;5.35;;
52458;SDS011;38372;52.902;6.024;2024-03-06T10:15:05;13.82;;;6.20;;
52458;SDS011;38372;52.902;6.024;2024-03-06T10:17:32;13.48;;;5.63;;
52458;SDS011;38372;52.902;6.024;2024-03-06T10:19:58;17.58;;;5.78;;
52458;SDS011;38372;52.902;6.024;2024-03-06T10:22:33;14.45;;;5.95;;
52458;SDS011;38372;52.902;6.024;2024-03-06T10:24:59;16.98;;;6.40;;
52458;SDS011;38372;52.902;6.024;2024-03-06T10:27:25;11.18;;;5.60;;
52458;SDS011;38372;52.902;6.024;2024-03-06T10:30:03;11.95;;;5.38;;
52458;SDS011;38372;52.902;6.024;2024-03-06T10:32:32;14.95;;;5.10;;
52458;SDS011;38372;52.902;6.024;2024-03-06T10:34:58;12.13;;;5.90;;
52458;SDS011;38372;52.902;6.024;2024-03-06T10:37:24;9.50;;;4.97;;
52458;SDS011;38372;52.902;6.024;2024-03-06T10:39:51;13.88;;;5.22;;
52458;SDS011;38372;52.902;6.024;2024-03-06T10:42:19;9.77;;;5.28;;
52458;SDS011;38372;52.902;6.024;2024-03-06T10:44:53;14.02;;;6.13;;
52458;SDS011;38372;52.902;6.024;2024-03-06T10:47:24;12.57;;;5.75;;
52458;SDS011;38372;52.902;6.024;2024-03-06T10:49:51;11.52;;;4.82;;
52458;SDS011;38372;52.902;6.024;2024-03-06T10:52:21;10.25;;;5.85;;
52458;SDS011;38372;52.902;6.024;2024-03-06T10:54:48;10.63;;;5.47;;
52458;SDS011;38372;52.902;6.024;2024-03-06T10:57:14;13.43;;;5.22;;
52458;SDS011;38372;52.902;6.024;2024-03-06T10:59:40;12.98;;;6.32;;
52458;SDS011;38372;52.902;6.024;2024-03-06T11:02:07;18.05;;;6.50;;
52458;SDS011;38372;52.902;6.024;2024-03-06T11:04:34;13.20;;;6.15;;
52458;SDS011;38372;52.902;6.024;2024-03-06T11:07:01;15.07;;;5.70;;
52458;SDS011;38372;52.902;6.024;2024-03-06T11:09:28;12.93;;;6.07;;
52458;SDS011;38372;52.902;6.024;2024-03-06T11:12:03;13.23;;;6.93;;
52458;SDS011;38372;52.902;6.024;2024-03-06T11:14:32;16.92;;;6.95;;
52458;SDS011;38372;52.902;6.024;2024-03-06T11:17:02;16.70;;;7.17;;
52458;SDS011;38372;52.902;6.024;2024-03-06T11:28:21;14.75;;;6.30;;
52458;SDS011;38372;52.902;6.024;2024-03-06T11:31:02;14.20;;;6.78;;
52458;SDS011;38372;52.902;6.024;2024-03-06T11:36:35;20.98;;;7.60;;
52458;SDS011;38372;52.902;6.024;2024-03-06T11:38:58;15.73;;;8.23;;
52458;SDS011;38372;52.902;6.024;2024-03-06T11:41:26;11.80;;;5.45;;
52458;SDS011;38372;52.902;6.024;2024-03-06T11:43:53;13.55;;;6.00;;
52458;SDS011;38372;52.902;6.024;2024-03-06T11:46:40;18.33;;;6.82;;
52458;SDS011;38372;52.902;6.024;2024-03-06T11:49:14;17.58;;;7.00;;
52458;SDS011;38372;52.902;6.024;2024-03-06T11:51:49;13.13;;;7.18;;
52458;SDS011;38372;52.902;6.024;2024-03-06T11:54:19;12.55;;;7.07;;
52458;SDS011;38372;52.902;6.024;2024-03-06T11:56:50;16.08;;;7.35;;
52458;SDS011;38372;52.902;6.024;2024-03-06T11:59:40;15.15;;;7.15;;
52458;SDS011;38372;52.902;6.024;2024-03-06T12:02:05;11.73;;;6.05;;
52458;SDS011;38372;52.902;6.024;2024-03-06T12:04:32;14.75;;;6.93;;
52458;SDS011;38372;52.902;6.024;2024-03-06T12:06:59;15.35;;;7.22;;
52458;SDS011;38372;52.902;6.024;2024-03-06T12:09:30;18.10;;;6.32;;
52458;SDS011;38372;52.902;6.024;2024-03-06T12:14:27;12.88;;;6.28;;
52458;SDS011;38372;52.902;6.024;2024-03-06T12:19:34;14.60;;;7.82;;
52458;SDS011;38372;52.902;6.024;2024-03-06T12:22:14;17.45;;;7.50;;
52458;SDS011;38372;52.902;6.024;2024-03-06T12:24:40;16.70;;;7.45;;
52458;SDS011;38372;52.902;6.024;2024-03-06T12:27:07;16.92;;;7.97;;
52458;SDS011;38372;52.902;6.024;2024-03-06T12:29:34;17.50;;;7.50;;
52458;SDS011;38372;52.902;6.024;2024-03-06T12:32:02;16.10;;;8.82;;
52458;SDS011;38372;52.902;6.024;2024-03-06T12:34:29;18.45;;;7.65;;
52458;SDS011;38372;52.902;6.024;2024-03-06T12:36:56;16.77;;;8.57;;
52458;SDS011;38372;52.902;6.024;2024-03-06T12:39:32;18.25;;;8.65;;
52458;SDS011;38372;52.902;6.024;2024-03-06T12:41:58;12.57;;;6.82;;
52458;SDS011;38372;52.902;6.024;2024-03-06T12:44:24;18.35;;;7.50;;
52458;SDS011;38372;52.902;6.024;2024-03-06T12:46:50;13.50;;;7.20;;
52458;SDS011;38372;52.902;6.024;2024-03-06T12:49:16;14.88;;;6.72;;
52458;SDS011;38372;52.902;6.024;2024-03-06T12:51:43;18.13;;;7.55;;
52458;SDS011;38372;52.902;6.024;2024-03-06T12:54:09;11.93;;;6.90;;
52458;SDS011;38372;52.902;6.024;2024-03-06T12:56:35;16.75;;;7.68;;
52458;SDS011;38372;52.902;6.024;2024-03-06T12:59:01;14.30;;;8.20;;
52458;SDS011;38372;52.902;6.024;2024-03-06T13:01:27;19.20;;;7.55;;
52458;SDS011;38372;52.902;6.024;2024-03-06T13:03:53;14.18;;;7.85;;
52458;SDS011;38372;52.902;6.024;2024-03-06T13:06:19;15.40;;;7.72;;
52458;SDS011;38372;52.902;6.024;2024-03-06T13:08:46;14.73;;;6.95;;
52458;SDS011;38372;52.902;6.024;2024-03-06T13:11:12;12.57;;;7.35;;
52458;SDS011;38372;52.902;6.024;2024-03-06T13:13:38;18.35;;;7.38;;
52458;SDS011;38372;52.902;6.024;2024-03-06T13:16:04;13.05;;;7.18;;
52458;SDS011;38372;52.902;6.024;2024-03-06T13:18:30;14.50;;;7.68;;
52458;SDS011;38372;52.902;6.024;2024-03-06T13:21:02;17.85;;;7.38;;
52458;SDS011;38372;52.902;6.024;2024-03-06T13:23:28;15.68;;;6.88;;
52458;SDS011;38372;52.902;6.024;2024-03-06T13:25:53;13.73;;;6.32;;
52458;SDS011;38372;52.902;6.024;2024-03-06T13:28:19;14.30;;;7.07;;
52458;SDS011;38372;52.902;6.024;2024-03-06T13:30:46;20.08;;;7.38;;
52458;SDS011;38372;52.902;6.024;2024-03-06T13:33:11;14.35;;;7.35;;
52458;SDS011;38372;52.902;6.024;2024-03-06T13:35:37;13.20;;;6.28;;
52458;SDS011;38372;52.902;6.024;2024-03-06T13:38:03;16.25;;;8.45;;
52458;SDS011;38372;52.902;6.024;2024-03-06T13:40:29;20.13;;;7.82;;
52458;SDS011;38372;52.902;6.024;2024-03-06T13:42:55;14.00;;;7.57;;
52458;SDS011;38372;52.902;6.024;2024-03-06T13:45:20;19.48;;;8.35;;
52458;SDS011;38372;52.902;6.024;2024-03-06T13:47:46;14.10;;;7.50;;
52458;SDS011;38372;52.902;6.024;2024-03-06T13:50:14;16.85;;;8.05;;
52458;SDS011;38372;52.902;6.024;2024-03-06T13:56:22;17.30;;;7.70;;
52458;SDS011;38372;52.902;6.024;2024-03-06T13:58:48;17.48;;;7.78;;
52458;SDS011;38372;52.902;6.024;2024-03-06T14:01:14;15.43;;;7.28;;
52458;SDS011;38372;52.902;6.024;2024-03-06T14:03:40;16.77;;;8.25;;
52458;SDS011;38372;52.902;6.024;2024-03-06T14:06:06;17.92;;;7.97;;
52458;SDS011;38372;52.902;6.024;2024-03-06T14:08:41;16.35;;;7.13;;
52458;SDS011;38372;52.902;6.024;2024-03-06T14:11:08;17.50;;;7.97;;
52458;SDS011;38372;52.902;6.024;2024-03-06T14:13:34;23.35;;;8.02;;
52458;SDS011;38372;52.902;6.024;2024-03-06T14:16:00;18.40;;;7.97;;
52458;SDS011;38372;52.902;6.024;2024-03-06T14:18:26;18.33;;;8.93;;
52458;SDS011;38372;52.902;6.024;2024-03-06T14:20:52;18.10;;;8.57;;
52458;SDS011;38372;52.902;6.024;2024-03-06T14:23:24;18.30;;;8.18;;
52458;SDS011;38372;52.902;6.024;2024-03-06T14:25:50;16.08;;;7.63;;
52458;SDS011;38372;52.902;6.024;2024-03-06T14:28:16;22.23;;;8.73;;
52458;SDS011;38372;52.902;6.024;2024-03-06T14:30:42;21.15;;;9.52;;
52458;SDS011;38372;52.902;6.024;2024-03-06T14:33:09;19.08;;;9.30;;
52458;SDS011;38372;52.902;6.024;2024-03-06T14:35:35;16.65;;;8.10;;
52458;SDS011;38372;52.902;6.024;2024-03-06T14:38:03;18.98;;;8.25;;
52458;SDS011;38372;52.902;6.024;2024-03-06T14:40:29;25.95;;;8.82;;
52458;SDS011;38372;52.902;6.024;2024-03-06T14:42:56;17.13;;;8.35;;
52458;SDS011;38372;52.902;6.024;2024-03-06T14:45:23;17.27;;;7.97;;
52458;SDS011;38372;52.902;6.024;2024-03-06T14:47:49;17.88;;;7.97;;
52458;SDS011;38372;52.902;6.024;2024-03-06T14:50:15;16.63;;;7.82;;
52458;SDS011;38372;52.902;6.024;2024-03-06T14:52:41;17.95;;;9.10;;
52458;SDS011;38372;52.902;6.024;2024-03-06T14:55:07;20.42;;;9.40;;
52458;SDS011;38372;52.902;6.024;2024-03-06T14:57:34;22.48;;;9.68;;
52458;SDS011;38372;52.902;6.024;2024-03-06T15:00:00;20.00;;;9.65;;
52458;SDS011;38372;52.902;6.024;2024-03-06T15:02:25;20.55;;;8.75;;